Al Amerat — 3FRY4 — position and weather

sailwx.info

Track history (hours):
 
Tides and Currents Weather Stations Pressure Air Temp Water Temp Dewpoint Dewpoint Depression Visibility Wind Speed Wind Dir Waves Ship Positions

Al Amerat

Last reported at 2017-Nov-17 14:25 UTC. Time now 2017-Nov-23 09:40 UTC.
Position N 01°14' E 103°60'.

Length 183 m; draft 11.6 m.

Type: Tanker. MMSI: 370706000.

Date/timePositionNaut miles runAvg speedWind from/ knotsBaromVisibWave heightAir tempDewpointWater temp
2017-Nov-17 14:25N 01°14' E 103°60'510.9
2017-Nov-17 14:00N 01°13' E 103°55'5 9.7
2017-Nov-17 13:30N 01°11' E 103°51'3 6.8
2017-Nov-17 13:00N 01°13' E 103°48'0 0.3
2017-Nov-17 12:30N 01°13' E 103°48'0 0.0
2017-Nov-17 12:00N 01°13' E 103°48'0 0.1
2017-Nov-17 11:30N 01°13' E 103°48'0 0.2
2017-Nov-17 11:00N 01°13' E 103°48'0 0.1
2017-Nov-17 10:30N 01°13' E 103°48'0 0.0
2017-Nov-17 10:00N 01°13' E 103°48'0 0.0
2017-Nov-17 09:30N 01°13' E 103°48'0 0.0
2017-Nov-17 09:00N 01°13' E 103°48'0 0.0
2017-Nov-17 08:30N 01°13' E 103°48'0 0.0
2017-Nov-17 08:00N 01°13' E 103°48'0 0.0
2017-Nov-17 07:30N 01°13' E 103°48'0 0.0
2017-Nov-17 07:00N 01°13' E 103°48'0 0.0
2017-Nov-17 06:30N 01°13' E 103°48'0 0.0
2017-Nov-17 06:00N 01°13' E 103°48'0 0.1
2017-Nov-17 05:30N 01°13' E 103°48'0 0.1
2017-Nov-17 05:00N 01°13' E 103°48'0 0.1
2017-Nov-17 04:30N 01°13' E 103°48'0 0.1
2017-Nov-17 04:00N 01°13' E 103°48'0 0.0
2017-Nov-17 03:30N 01°13' E 103°48'0 0.1
2017-Nov-17 03:00N 01°13' E 103°48'0 0.0
2017-Nov-17 02:30N 01°13' E 103°48'0 0.1
2017-Nov-17 02:00N 01°13' E 103°48'0 0.0
2017-Nov-17 01:30N 01°13' E 103°48'0 0.0
2017-Nov-17 01:00N 01°13' E 103°48'0 0.0
2017-Nov-17 00:30N 01°13' E 103°48'0 0.1
2017-Nov-17 00:00N 01°13' E 103°48'1 3.0
2017-Nov-16 23:30N 01°14' E 103°47'4 7.1
2017-Nov-16 23:00N 01°15' E 103°43'5 9.6
2017-Nov-16 22:30N 01°12' E 103°39'4 7.4
2017-Nov-16 22:00N 01°12' E 103°36'3 6.1
2017-Nov-16 21:30N 01°10' E 103°33'2 3.8
2017-Nov-16 21:00N 01°10' E 103°32'1 1.1
2017-Nov-16 20:30N 01°10' E 103°32'3 6.1
2017-Nov-16 20:00N 01°10' E 103°29'1 3.0
2017-Nov-16 19:30N 01°11' E 103°27'0 0.6
2017-Nov-16 18:59N 01°11' E 103°27'1 1.6
2017-Nov-16 18:29N 01°11' E 103°26'1 2.4
2017-Nov-16 18:00N 01°11' E 103°25'3 5.8
2017-Nov-16 17:30N 01°13' E 103°23'4 8.4
2017-Nov-16 17:00N 01°16' E 103°20'  
Track history (hours):
 
Tides and Currents Weather Stations Pressure Air Temp Water Temp Dewpoint Dewpoint Depression Visibility Wind Speed Wind Dir Waves Ship Positions

Al Amerat

Last reported at 2017-Nov-17 14:25 UTC. Time now 2017-Nov-23 09:40 UTC.
Position N 01°14' E 103°60'.

Length 183 m; draft 11.6 m.

Type: Tanker. MMSI: 370706000.

Date/timePositionNaut miles runAvg speedWind from/ knotsBaromVisibWave heightAir tempDewpointWater temp
2017-Nov-17 14:25N 01°14' E 103°60'510.9
2017-Nov-17 14:00N 01°13' E 103°55'5 9.7
2017-Nov-17 13:30N 01°11' E 103°51'3 6.8
2017-Nov-17 13:00N 01°13' E 103°48'0 0.3
2017-Nov-17 12:30N 01°13' E 103°48'0 0.0
2017-Nov-17 12:00N 01°13' E 103°48'0 0.1
2017-Nov-17 11:30N 01°13' E 103°48'0 0.2
2017-Nov-17 11:00N 01°13' E 103°48'0 0.1
2017-Nov-17 10:30N 01°13' E 103°48'0 0.0
2017-Nov-17 10:00N 01°13' E 103°48'0 0.0
2017-Nov-17 09:30N 01°13' E 103°48'0 0.0
2017-Nov-17 09:00N 01°13' E 103°48'0 0.0
2017-Nov-17 08:30N 01°13' E 103°48'0 0.0
2017-Nov-17 08:00N 01°13' E 103°48'0 0.0
2017-Nov-17 07:30N 01°13' E 103°48'0 0.0
2017-Nov-17 07:00N 01°13' E 103°48'0 0.0
2017-Nov-17 06:30N 01°13' E 103°48'0 0.0
2017-Nov-17 06:00N 01°13' E 103°48'0 0.1
2017-Nov-17 05:30N 01°13' E 103°48'0 0.1
2017-Nov-17 05:00N 01°13' E 103°48'0 0.1
2017-Nov-17 04:30N 01°13' E 103°48'0 0.1
2017-Nov-17 04:00N 01°13' E 103°48'0 0.0
2017-Nov-17 03:30N 01°13' E 103°48'0 0.1
2017-Nov-17 03:00N 01°13' E 103°48'0 0.0
2017-Nov-17 02:30N 01°13' E 103°48'0 0.1
2017-Nov-17 02:00N 01°13' E 103°48'0 0.0
2017-Nov-17 01:30N 01°13' E 103°48'0 0.0
2017-Nov-17 01:00N 01°13' E 103°48'0 0.0
2017-Nov-17 00:30N 01°13' E 103°48'0 0.1
2017-Nov-17 00:00N 01°13' E 103°48'1 3.0
2017-Nov-16 23:30N 01°14' E 103°47'4 7.1
2017-Nov-16 23:00N 01°15' E 103°43'5 9.6
2017-Nov-16 22:30N 01°12' E 103°39'4 7.4
2017-Nov-16 22:00N 01°12' E 103°36'3 6.1
2017-Nov-16 21:30N 01°10' E 103°33'2 3.8
2017-Nov-16 21:00N 01°10' E 103°32'1 1.1
2017-Nov-16 20:30N 01°10' E 103°32'3 6.1
2017-Nov-16 20:00N 01°10' E 103°29'1 3.0
2017-Nov-16 19:30N 01°11' E 103°27'0 0.6
2017-Nov-16 18:59N 01°11' E 103°27'1 1.6
2017-Nov-16 18:29N 01°11' E 103°26'1 2.4
2017-Nov-16 18:00N 01°11' E 103°25'3 5.8
2017-Nov-16 17:30N 01°13' E 103°23'4 8.4
2017-Nov-16 17:00N 01°16' E 103°20'  

Dump ship's entire track history